sensor_id;sensor_type;location;lat;lon;timestamp;pressure;altitude;pressure_sealevel;temperature;humidity
61119;BME280;51448;51.660;5.824;2023-02-10T00:01:38;103447.69;;;1.72;94.63
61119;BME280;51448;51.660;5.824;2023-02-10T00:04:06;103444.13;;;1.70;94.41
61119;BME280;51448;51.660;5.824;2023-02-10T00:06:34;103446.63;;;1.69;94.72
61119;BME280;51448;51.660;5.824;2023-02-10T00:09:03;103443.06;;;1.67;95.17
61119;BME280;51448;51.660;5.824;2023-02-10T00:11:30;103442.88;;;1.64;95.08
61119;BME280;51448;51.660;5.824;2023-02-10T00:14:18;103439.31;;;1.61;95.40
61119;BME280;51448;51.660;5.824;2023-02-10T00:16:49;103447.94;;;1.60;95.27
61119;BME280;51448;51.660;5.824;2023-02-10T00:19:20;103456.50;;;1.59;95.58
61119;BME280;51448;51.660;5.824;2023-02-10T00:21:49;103457.25;;;1.57;95.83
61119;BME280;51448;51.660;5.824;2023-02-10T00:24:17;103463.28;;;1.56;95.37
61119;BME280;51448;51.660;5.824;2023-02-10T00:26:45;103465.78;;;1.54;95.69
61119;BME280;51448;51.660;5.824;2023-02-10T00:29:13;103457.91;;;1.53;96.08
61119;BME280;51448;51.660;5.824;2023-02-10T00:31:42;103461.34;;;1.52;96.12
61119;BME280;51448;51.660;5.824;2023-02-10T00:34:14;103456.06;;;1.50;96.16
61119;BME280;51448;51.660;5.824;2023-02-10T00:36:45;103455.88;;;1.47;96.18
61119;BME280;51448;51.660;5.824;2023-02-10T00:39:17;103464.50;;;1.46;96.31
61119;BME280;51448;51.660;5.824;2023-02-10T00:41:45;103467.84;;;1.44;96.54
61119;BME280;51448;51.660;5.824;2023-02-10T00:44:12;103468.63;;;1.43;96.69
61119;BME280;51448;51.660;5.824;2023-02-10T00:46:40;103464.28;;;1.42;96.81
61119;BME280;51448;51.660;5.824;2023-02-10T00:49:10;103467.75;;;1.42;97.17
61119;BME280;51448;51.660;5.824;2023-02-10T00:51:38;103461.50;;;1.38;96.83
61119;BME280;51448;51.660;5.824;2023-02-10T00:54:08;103464.00;;;1.37;97.22
61119;BME280;51448;51.660;5.824;2023-02-10T00:56:39;103470.81;;;1.35;97.32
61119;BME280;51448;51.660;5.824;2023-02-10T00:59:08;103469.94;;;1.34;96.93
61119;BME280;51448;51.660;5.824;2023-02-10T01:01:41;103463.69;;;1.31;97.37
61119;BME280;51448;51.660;5.824;2023-02-10T01:04:09;103470.50;;;1.29;97.43
61119;BME280;51448;51.660;5.824;2023-02-10T01:06:37;103478.28;;;1.29;97.37
61119;BME280;51448;51.660;5.824;2023-02-10T01:09:05;103466.94;;;1.27;97.68
61119;BME280;51448;51.660;5.824;2023-02-10T01:11:33;103473.72;;;1.25;97.58
61119;BME280;51448;51.660;5.824;2023-02-10T01:14:01;103484.09;;;1.25;97.92
61119;BME280;51448;51.660;5.824;2023-02-10T01:16:28;103476.97;;;1.20;98.08
61119;BME280;51448;51.660;5.824;2023-02-10T01:18:58;103489.16;;;1.22;98.39
61119;BME280;51448;51.660;5.824;2023-02-10T01:21:28;103487.28;;;1.19;98.46
61119;BME280;51448;51.660;5.824;2023-02-10T01:23:57;103478.59;;;1.18;98.80
61119;BME280;51448;51.660;5.824;2023-02-10T01:26:25;103494.16;;;1.18;98.16
61119;BME280;51448;51.660;5.824;2023-02-10T01:28:52;103492.38;;;1.17;98.61
61119;BME280;51448;51.660;5.824;2023-02-10T01:31:21;103498.38;;;1.16;98.72
61119;BME280;51448;51.660;5.824;2023-02-10T01:33:54;103491.41;;;1.15;98.46
61119;BME280;51448;51.660;5.824;2023-02-10T01:36:23;103494.81;;;1.14;98.61
61119;BME280;51448;51.660;5.824;2023-02-10T01:38:52;103495.63;;;1.13;98.54
61119;BME280;51448;51.660;5.824;2023-02-10T01:41:21;103485.25;;;1.13;98.85
61119;BME280;51448;51.660;5.824;2023-02-10T01:46:34;103494.66;;;1.11;98.85
61119;BME280;51448;51.660;5.824;2023-02-10T01:49:11;103493.78;;;1.11;99.02
61119;BME280;51448;51.660;5.824;2023-02-10T01:51:52;103485.03;;;1.09;99.56
61119;BME280;51448;51.660;5.824;2023-02-10T01:54:29;103490.19;;;1.09;99.42
61119;BME280;51448;51.660;5.824;2023-02-10T01:57:00;103484.94;;;1.07;99.63
61119;BME280;51448;51.660;5.824;2023-02-10T01:59:33;103483.31;;;1.09;99.64
61119;BME280;51448;51.660;5.824;2023-02-10T02:02:04;103478.91;;;1.08;100.00
61119;BME280;51448;51.660;5.824;2023-02-10T02:04:41;103483.31;;;1.09;99.99
61119;BME280;51448;51.660;5.824;2023-02-10T02:07:12;103479.75;;;1.07;100.00
61119;BME280;51448;51.660;5.824;2023-02-10T02:09:40;103479.84;;;1.09;100.00
61119;BME280;51448;51.660;5.824;2023-02-10T02:15:03;103471.16;;;1.08;100.00
61119;BME280;51448;51.660;5.824;2023-02-10T02:18:02;103466.69;;;1.06;100.00
61119;BME280;51448;51.660;5.824;2023-02-10T02:30:24;103476.09;;;1.04;100.00
61119;BME280;51448;51.660;5.824;2023-02-10T02:33:24;103480.22;;;1.00;100.00
61119;BME280;51448;51.660;5.824;2023-02-10T02:36:12;103487.94;;;0.98;100.00
61119;BME280;51448;51.660;5.824;2023-02-10T02:39:03;103491.22;;;0.96;100.00
61119;BME280;51448;51.660;5.824;2023-02-10T02:41:34;103489.44;;;0.95;100.00
61119;BME280;51448;51.660;5.824;2023-02-10T02:44:06;103484.28;;;0.95;100.00
61119;BME280;51448;51.660;5.824;2023-02-10T02:52:35;103478.22;;;0.94;100.00
61119;BME280;51448;51.660;5.824;2023-02-10T02:55:50;103472.94;;;0.93;100.00
61119;BME280;51448;51.660;5.824;2023-02-10T03:01:16;103475.34;;;0.90;100.00
61119;BME280;51448;51.660;5.824;2023-02-10T03:03:54;103485.69;;;0.90;100.00
61119;BME280;51448;51.660;5.824;2023-02-10T03:06:24;103481.44;;;0.90;100.00
61119;BME280;51448;51.660;5.824;2023-02-10T03:08:52;103493.47;;;0.90;100.00
61119;BME280;51448;51.660;5.824;2023-02-10T03:11:20;103487.31;;;0.88;100.00
61119;BME280;51448;51.660;5.824;2023-02-10T03:13:49;103493.41;;;0.88;100.00
61119;BME280;51448;51.660;5.824;2023-02-10T03:16:17;103501.09;;;0.87;100.00
61119;BME280;51448;51.660;5.824;2023-02-10T03:18:44;103505.41;;;0.86;100.00
61119;BME280;51448;51.660;5.824;2023-02-10T03:21:12;103505.31;;;0.85;100.00
61119;BME280;51448;51.660;5.824;2023-02-10T03:23:40;103508.69;;;0.84;100.00
61119;BME280;51448;51.660;5.824;2023-02-10T03:26:07;103512.91;;;0.82;100.00
61119;BME280;51448;51.660;5.824;2023-02-10T03:28:35;103517.94;;;0.78;100.00
61119;BME280;51448;51.660;5.824;2023-02-10T03:31:07;103521.31;;;0.77;100.00
61119;BME280;51448;51.660;5.824;2023-02-10T03:33:36;103517.69;;;0.74;100.00
61119;BME280;51448;51.660;5.824;2023-02-10T03:36:05;103513.28;;;0.73;100.00
61119;BME280;51448;51.660;5.824;2023-02-10T03:38:33;103515.78;;;0.71;100.00
61119;BME280;51448;51.660;5.824;2023-02-10T03:41:00;103515.72;;;0.70;100.00
61119;BME280;51448;51.660;5.824;2023-02-10T03:43:28;103516.50;;;0.69;100.00
61119;BME280;51448;51.660;5.824;2023-02-10T03:46:03;103522.59;;;0.69;100.00
61119;BME280;51448;51.660;5.824;2023-02-10T03:48:33;103524.13;;;0.66;100.00
61119;BME280;51448;51.660;5.824;2023-02-10T03:51:02;103525.91;;;0.67;100.00
61119;BME280;51448;51.660;5.824;2023-02-10T03:53:32;103526.63;;;0.64;100.00
61119;BME280;51448;51.660;5.824;2023-02-10T03:56:00;103523.94;;;0.63;100.00
61119;BME280;51448;51.660;5.824;2023-02-10T03:58:28;103512.69;;;0.62;100.00
61119;BME280;51448;51.660;5.824;2023-02-10T04:00:55;103518.66;;;0.61;100.00
61119;BME280;51448;51.660;5.824;2023-02-10T04:03:23;103515.19;;;0.60;100.00
61119;BME280;51448;51.660;5.824;2023-02-10T04:05:52;103516.09;;;0.61;100.00
61119;BME280;51448;51.660;5.824;2023-02-10T04:08:19;103515.28;;;0.62;100.00
61119;BME280;51448;51.660;5.824;2023-02-10T04:10:47;103513.50;;;0.61;100.00
61119;BME280;51448;51.660;5.824;2023-02-10T04:13:14;103511.72;;;0.60;100.00
61119;BME280;51448;51.660;5.824;2023-02-10T04:15:42;103516.09;;;0.61;100.00
61119;BME280;51448;51.660;5.824;2023-02-10T04:18:09;103511.72;;;0.60;100.00
61119;BME280;51448;51.660;5.824;2023-02-10T04:20:37;103515.19;;;0.60;100.00
61119;BME280;51448;51.660;5.824;2023-02-10T04:23:05;103509.03;;;0.58;100.00
61119;BME280;51448;51.660;5.824;2023-02-10T04:25:32;103508.16;;;0.58;100.00
61119;BME280;51448;51.660;5.824;2023-02-10T04:28:00;103513.16;;;0.55;100.00
61119;BME280;51448;51.660;5.824;2023-02-10T04:30:28;103515.75;;;0.55;100.00
61119;BME280;51448;51.660;5.824;2023-02-10T04:32:55;103511.38;;;0.54;100.00
61119;BME280;51448;51.660;5.824;2023-02-10T04:35:23;103518.19;;;0.52;100.00
61119;BME280;51448;51.660;5.824;2023-02-10T04:37:50;103518.19;;;0.52;100.00
61119;BME280;51448;51.660;5.824;2023-02-10T04:40:18;103512.91;;;0.50;100.00
61119;BME280;51448;51.660;5.824;2023-02-10T04:42:46;103510.41;;;0.52;100.00
61119;BME280;51448;51.660;5.824;2023-02-10T04:45:14;103508.59;;;0.51;100.00
61119;BME280;51448;51.660;5.824;2023-02-10T04:47:41;103505.03;;;0.49;100.00
61119;BME280;51448;51.660;5.824;2023-02-10T04:50:09;103513.72;;;0.49;100.00
61119;BME280;51448;51.660;5.824;2023-02-10T04:52:37;103517.94;;;0.47;100.00
61119;BME280;51448;51.660;5.824;2023-02-10T04:55:04;103523.00;;;0.46;100.00
61119;BME280;51448;51.660;5.824;2023-02-10T04:57:32;103518.63;;;0.45;100.00
61119;BME280;51448;51.660;5.824;2023-02-10T05:00:00;103524.63;;;0.44;100.00
61119;BME280;51448;51.660;5.824;2023-02-10T05:02:27;103523.72;;;0.43;100.00
61119;BME280;51448;51.660;5.824;2023-02-10T05:04:55;103521.94;;;0.42;100.00
61119;BME280;51448;51.660;5.824;2023-02-10T05:07:22;103528.81;;;0.42;100.00
61119;BME280;51448;51.660;5.824;2023-02-10T05:09:50;103531.31;;;0.40;100.00
61119;BME280;51448;51.660;5.824;2023-02-10T05:12:18;103527.75;;;0.38;100.00
61119;BME280;51448;51.660;5.824;2023-02-10T05:14:45;103536.34;;;0.37;100.00
61119;BME280;51448;51.660;5.824;2023-02-10T05:17:13;103542.28;;;0.36;100.00
61119;BME280;51448;51.660;5.824;2023-02-10T05:19:41;103536.22;;;0.35;100.00
61119;BME280;51448;51.660;5.824;2023-02-10T05:22:08;103539.72;;;0.36;100.00
61119;BME280;51448;51.660;5.824;2023-02-10T05:24:36;103546.50;;;0.34;100.00
61119;BME280;51448;51.660;5.824;2023-02-10T05:27:03;103537.75;;;0.32;100.00
61119;BME280;51448;51.660;5.824;2023-02-10T05:29:31;103536.88;;;0.31;100.00
61119;BME280;51448;51.660;5.824;2023-02-10T05:31:59;103537.59;;;0.29;100.00
61119;BME280;51448;51.660;5.824;2023-02-10T05:34:26;103537.59;;;0.29;100.00
61119;BME280;51448;51.660;5.824;2023-02-10T05:36:54;103540.09;;;0.27;100.00
61119;BME280;51448;51.660;5.824;2023-02-10T05:39:22;103546.25;;;0.29;100.00
61119;BME280;51448;51.660;5.824;2023-02-10T05:41:55;103543.56;;;0.28;100.00
61119;BME280;51448;51.660;5.824;2023-02-10T05:44:26;103554.88;;;0.30;100.00
61119;BME280;51448;51.660;5.824;2023-02-10T05:46:55;103553.19;;;0.30;100.00
61119;BME280;51448;51.660;5.824;2023-02-10T05:49:23;103550.88;;;0.35;100.00
61119;BME280;51448;51.660;5.824;2023-02-10T05:51:51;103545.72;;;0.35;100.00
61119;BME280;51448;51.660;5.824;2023-02-10T05:54:19;103550.16;;;0.37;100.00
61119;BME280;51448;51.660;5.824;2023-02-10T05:56:48;103553.72;;;0.39;100.00
61119;BME280;51448;51.660;5.824;2023-02-10T05:59:17;103548.66;;;0.41;100.00
61119;BME280;51448;51.660;5.824;2023-02-10T06:01:45;103544.34;;;0.42;100.00
61119;BME280;51448;51.660;5.824;2023-02-10T06:04:13;103544.50;;;0.45;100.00
61119;BME280;51448;51.660;5.824;2023-02-10T06:06:41;103544.69;;;0.48;100.00
61119;BME280;51448;51.660;5.824;2023-02-10T06:09:09;103543.09;;;0.50;100.00
61119;BME280;51448;51.660;5.824;2023-02-10T06:11:37;103548.38;;;0.51;100.00
61119;BME280;51448;51.660;5.824;2023-02-10T06:14:04;103551.94;;;0.53;100.00
61119;BME280;51448;51.660;5.824;2023-02-10T06:16:32;103546.81;;;0.55;100.00
61119;BME280;51448;51.660;5.824;2023-02-10T06:19:00;103547.88;;;0.58;100.00
61119;BME280;51448;51.660;5.824;2023-02-10T06:21:27;103542.81;;;0.60;100.00
61119;BME280;51448;51.660;5.824;2023-02-10T06:23:55;103548.16;;;0.63;100.00
61119;BME280;51448;51.660;5.824;2023-02-10T06:26:23;103549.13;;;0.65;100.00
61119;BME280;51448;51.660;5.824;2023-02-10T06:28:50;103540.66;;;0.68;100.00
61119;BME280;51448;51.660;5.824;2023-02-10T06:31:18;103546.00;;;0.71;100.00
61119;BME280;51448;51.660;5.824;2023-02-10T06:33:46;103541.06;;;0.75;100.00
61119;BME280;51448;51.660;5.824;2023-02-10T06:36:14;103537.69;;;0.76;100.00
61119;BME280;51448;51.660;5.824;2023-02-10T06:38:42;103539.53;;;0.79;100.00
61119;BME280;51448;51.660;5.824;2023-02-10T06:41:10;103538.00;;;0.83;100.00
61119;BME280;51448;51.660;5.824;2023-02-10T06:43:37;103542.56;;;0.87;100.00
61119;BME280;51448;51.660;5.824;2023-02-10T06:46:05;103541.75;;;0.88;100.00
61119;BME280;51448;51.660;5.824;2023-02-10T06:48:34;103541.09;;;0.92;100.00
61119;BME280;51448;51.660;5.824;2023-02-10T06:51:01;103541.28;;;0.95;100.00
61119;BME280;51448;51.660;5.824;2023-02-10T06:53:29;103546.72;;;0.99;100.00
61119;BME280;51448;51.660;5.824;2023-02-10T06:55:57;103543.38;;;1.02;100.00
61119;BME280;51448;51.660;5.824;2023-02-10T06:58:25;103542.75;;;1.06;100.00
61119;BME280;51448;51.660;5.824;2023-02-10T07:00:53;103545.53;;;1.09;100.00
61119;BME280;51448;51.660;5.824;2023-02-10T07:03:21;103558.72;;;1.14;100.00
61119;BME280;51448;51.660;5.824;2023-02-10T07:05:50;103556.38;;;1.18;100.00
61119;BME280;51448;51.660;5.824;2023-02-10T07:08:18;103564.25;;;1.20;100.00
61119;BME280;51448;51.660;5.824;2023-02-10T07:10:46;103568.00;;;1.25;100.00
61119;BME280;51448;51.660;5.824;2023-02-10T07:13:15;103563.84;;;1.29;100.00
61119;BME280;51448;51.660;5.824;2023-02-10T07:15:42;103568.22;;;1.30;100.00
61119;BME280;51448;51.660;5.824;2023-02-10T07:18:10;103577.97;;;1.34;100.00
61119;BME280;51448;51.660;5.824;2023-02-10T07:20:38;103574.72;;;1.38;100.00
61119;BME280;51448;51.660;5.824;2023-02-10T07:23:06;103573.09;;;1.40;100.00
61119;BME280;51448;51.660;5.824;2023-02-10T07:25:34;103577.66;;;1.44;100.00
61119;BME280;51448;51.660;5.824;2023-02-10T07:28:01;103583.81;;;1.46;100.00
61119;BME280;51448;51.660;5.824;2023-02-10T07:30:29;103588.25;;;1.49;100.00
61119;BME280;51448;51.660;5.824;2023-02-10T07:32:57;103582.34;;;1.51;100.00
61119;BME280;51448;51.660;5.824;2023-02-10T07:35:26;103583.41;;;1.55;100.00
61119;BME280;51448;51.660;5.824;2023-02-10T07:37:54;103585.25;;;1.57;100.00
61119;BME280;51448;51.660;5.824;2023-02-10T07:40:22;103581.13;;;1.61;100.00
61119;BME280;51448;51.660;5.824;2023-02-10T07:42:49;103587.47;;;1.66;100.00
61119;BME280;51448;51.660;5.824;2023-02-10T07:45:33;103592.91;;;1.71;100.00
61119;BME280;51448;51.660;5.824;2023-02-10T07:48:01;103581.03;;;1.76;100.00
61119;BME280;51448;51.660;5.824;2023-02-10T07:50:28;103579.59;;;1.81;100.00
61119;BME280;51448;51.660;5.824;2023-02-10T07:53:00;103582.19;;;1.81;100.00
61119;BME280;51448;51.660;5.824;2023-02-10T07:55:27;103584.88;;;1.83;100.00
61119;BME280;51448;51.660;5.824;2023-02-10T07:57:55;103595.56;;;1.89;100.00
61119;BME280;51448;51.660;5.824;2023-02-10T08:00:23;103590.59;;;1.93;100.00
61119;BME280;51448;51.660;5.824;2023-02-10T08:02:51;103582.31;;;2.00;100.00
61119;BME280;51448;51.660;5.824;2023-02-10T08:05:18;103582.56;;;2.05;100.00
61119;BME280;51448;51.660;5.824;2023-02-10T08:07:46;103583.59;;;2.09;100.00
61119;BME280;51448;51.660;5.824;2023-02-10T08:10:14;103590.72;;;2.13;100.00
61119;BME280;51448;51.660;5.824;2023-02-10T08:12:42;103598.75;;;2.17;100.00
61119;BME280;51448;51.660;5.824;2023-02-10T08:15:10;103605.81;;;2.20;100.00
61119;BME280;51448;51.660;5.824;2023-02-10T08:17:38;103600.72;;;2.21;100.00
61119;BME280;51448;51.660;5.824;2023-02-10T08:20:06;103612.94;;;2.24;100.00
61119;BME280;51448;51.660;5.824;2023-02-10T08:22:35;103613.09;;;2.27;100.00
61119;BME280;51448;51.660;5.824;2023-02-10T08:25:03;103610.66;;;2.30;100.00
61119;BME280;51448;51.660;5.824;2023-02-10T08:27:31;103618.53;;;2.32;100.00
61119;BME280;51448;51.660;5.824;2023-02-10T08:29:59;103623.00;;;2.34;100.00
61119;BME280;51448;51.660;5.824;2023-02-10T08:32:26;103621.34;;;2.36;100.00
61119;BME280;51448;51.660;5.824;2023-02-10T08:34:54;103631.88;;;2.39;100.00
61119;BME280;51448;51.660;5.824;2023-02-10T08:37:22;103633.78;;;2.42;100.00
61119;BME280;51448;51.660;5.824;2023-02-10T08:39:50;103635.63;;;2.45;100.00
61119;BME280;51448;51.660;5.824;2023-02-10T08:42:19;103640.91;;;2.46;100.00
61119;BME280;51448;51.660;5.824;2023-02-10T08:44:46;103643.56;;;2.48;100.00
61119;BME280;51448;51.660;5.824;2023-02-10T08:47:14;103648.84;;;2.49;100.00
61119;BME280;51448;51.660;5.824;2023-02-10T08:49:42;103656.72;;;2.51;100.00
61119;BME280;51448;51.660;5.824;2023-02-10T08:52:10;103646.31;;;2.51;100.00
61119;BME280;51448;51.660;5.824;2023-02-10T08:54:38;103623.91;;;2.53;100.00
61119;BME280;51448;51.660;5.824;2023-02-10T08:57:07;103628.34;;;2.55;100.00
61119;BME280;51448;51.660;5.824;2023-02-10T08:59:35;103622.41;;;2.58;100.00
61119;BME280;51448;51.660;5.824;2023-02-10T09:02:03;103625.25;;;2.63;100.00
61119;BME280;51448;51.660;5.824;2023-02-10T09:04:30;103617.81;;;2.70;100.00
61119;BME280;51448;51.660;5.824;2023-02-10T09:06:58;103621.63;;;2.77;100.00
61119;BME280;51448;51.660;5.824;2023-02-10T09:09:26;103627.34;;;2.88;100.00
61119;BME280;51448;51.660;5.824;2023-02-10T09:11:54;103616.56;;;2.98;100.00
61119;BME280;51448;51.660;5.824;2023-02-10T09:14:24;103627.19;;;3.02;100.00
61119;BME280;51448;51.660;5.824;2023-02-10T09:16:51;103620.44;;;3.06;100.00
61119;BME280;51448;51.660;5.824;2023-02-10T09:19:19;103622.19;;;3.07;100.00
61119;BME280;51448;51.660;5.824;2023-02-10T09:21:47;103624.13;;;3.11;100.00
61119;BME280;51448;51.660;5.824;2023-02-10T09:24:15;103619.22;;;3.17;100.00
61119;BME280;51448;51.660;5.824;2023-02-10T09:26:44;103620.34;;;3.22;100.00
61119;BME280;51448;51.660;5.824;2023-02-10T09:29:12;103622.38;;;3.30;100.00
61119;BME280;51448;51.660;5.824;2023-02-10T09:31:40;103626.13;;;3.35;100.00
61119;BME280;51448;51.660;5.824;2023-02-10T09:34:08;103634.03;;;3.38;100.00
61119;BME280;51448;51.660;5.824;2023-02-10T09:36:36;103624.59;;;3.40;100.00
61119;BME280;51448;51.660;5.824;2023-02-10T09:39:04;103628.31;;;3.45;100.00
61119;BME280;51448;51.660;5.824;2023-02-10T09:44:21;103626.97;;;3.53;100.00
61119;BME280;51448;51.660;5.824;2023-02-10T09:53:07;103637.25;;;3.70;100.00
61119;BME280;51448;51.660;5.824;2023-02-10T09:55:43;103630.41;;;3.72;100.00
61119;BME280;51448;51.660;5.824;2023-02-10T09:58:34;103625.31;;;3.75;100.00
61119;BME280;51448;51.660;5.824;2023-02-10T10:01:23;103629.78;;;3.77;100.00
61119;BME280;51448;51.660;5.824;2023-02-10T10:04:10;103630.75;;;3.79;100.00
61119;BME280;51448;51.660;5.824;2023-02-10T10:06:45;103629.84;;;3.79;100.00
61119;BME280;51448;51.660;5.824;2023-02-10T10:09:36;103629.72;;;3.76;100.00
61119;BME280;51448;51.660;5.824;2023-02-10T10:12:09;103634.91;;;3.76;100.00
61119;BME280;51448;51.660;5.824;2023-02-10T10:14:45;103636.84;;;3.80;100.00
61119;BME280;51448;51.660;5.824;2023-02-10T10:20:25;103647.91;;;3.95;100.00
61119;BME280;51448;51.660;5.824;2023-02-10T10:31:13;103628.94;;;4.38;100.00
61119;BME280;51448;51.660;5.824;2023-02-10T10:36:22;103629.72;;;4.57;100.00
61119;BME280;51448;51.660;5.824;2023-02-10T10:38:59;103625.69;;;4.65;100.00
61119;BME280;51448;51.660;5.824;2023-02-10T10:41:31;103631.38;;;4.76;100.00
61119;BME280;51448;51.660;5.824;2023-02-10T10:44:02;103634.34;;;4.85;100.00
61119;BME280;51448;51.660;5.824;2023-02-10T10:49:18;103632.38;;;5.00;100.00
61119;BME280;51448;51.660;5.824;2023-02-10T10:51:46;103624.06;;;5.11;100.00
61119;BME280;51448;51.660;5.824;2023-02-10T10:54:17;103622.75;;;5.22;100.00
61119;BME280;51448;51.660;5.824;2023-02-10T10:56:54;103624.97;;;5.34;100.00
61119;BME280;51448;51.660;5.824;2023-02-10T10:59:48;103616.75;;;5.47;100.00
61119;BME280;51448;51.660;5.824;2023-02-10T11:02:22;103617.03;;;5.55;100.00
61119;BME280;51448;51.660;5.824;2023-02-10T11:05:04;103611.47;;;5.68;100.00
61119;BME280;51448;51.660;5.824;2023-02-10T11:07:38;103605.66;;;5.77;100.00
61119;BME280;51448;51.660;5.824;2023-02-10T11:10:22;103616.63;;;5.91;100.00
61119;BME280;51448;51.660;5.824;2023-02-10T11:12:53;103611.81;;;6.01;100.00
61119;BME280;51448;51.660;5.824;2023-02-10T11:15:29;103601.72;;;6.12;100.00
61119;BME280;51448;51.660;5.824;2023-02-10T11:18:01;103594.03;;;6.17;100.00
61119;BME280;51448;51.660;5.824;2023-02-10T11:20:35;103596.03;;;6.24;100.00
61119;BME280;51448;51.660;5.824;2023-02-10T11:23:13;103591.91;;;6.31;100.00
61119;BME280;51448;51.660;5.824;2023-02-10T11:25:46;103593.97;;;6.41;100.00
61119;BME280;51448;51.660;5.824;2023-02-10T11:28:25;103590.03;;;6.54;100.00
61119;BME280;51448;51.660;5.824;2023-02-10T11:31:12;103592.22;;;6.67;99.65
61119;BME280;51448;51.660;5.824;2023-02-10T11:33:58;103587.34;;;6.78;99.41
61119;BME280;51448;51.660;5.824;2023-02-10T11:36:34;103585.84;;;6.86;99.40
61119;BME280;51448;51.660;5.824;2023-02-10T11:39:14;103584.41;;;6.96;98.04
61119;BME280;51448;51.660;5.824;2023-02-10T11:41:54;103587.28;;;7.03;98.05
61119;BME280;51448;51.660;5.824;2023-02-10T11:44:28;103580.63;;;7.15;97.00
61119;BME280;51448;51.660;5.824;2023-02-10T11:46:59;103575.63;;;7.22;96.72
61119;BME280;51448;51.660;5.824;2023-02-10T11:49:34;103578.53;;;7.33;95.79
61119;BME280;51448;51.660;5.824;2023-02-10T11:52:04;103582.28;;;7.41;95.34
61119;BME280;51448;51.660;5.824;2023-02-10T11:54:32;103572.03;;;7.49;94.55
61119;BME280;51448;51.660;5.824;2023-02-10T12:08:42;103561.00;;;7.93;91.91
61119;BME280;51448;51.660;5.824;2023-02-10T12:11:35;103553.34;;;8.00;92.39
61119;BME280;51448;51.660;5.824;2023-02-10T12:17:24;103547.69;;;8.20;90.87
61119;BME280;51448;51.660;5.824;2023-02-10T12:26:18;103538.53;;;8.37;88.39
61119;BME280;51448;51.660;5.824;2023-02-10T12:29:08;103543.91;;;8.42;86.75
61119;BME280;51448;51.660;5.824;2023-02-10T12:31:53;103536.94;;;8.42;86.53
61119;BME280;51448;51.660;5.824;2023-02-10T12:35:12;103544.03;;;8.46;85.61
61119;BME280;51448;51.660;5.824;2023-02-10T12:41:06;103541.53;;;8.51;84.35
61119;BME280;51448;51.660;5.824;2023-02-10T12:44:13;103543.28;;;8.52;84.05
61119;BME280;51448;51.660;5.824;2023-02-10T12:53:30;103539.75;;;8.50;82.26
61119;BME280;51448;51.660;5.824;2023-02-10T12:56:11;103541.50;;;8.50;82.21
61119;BME280;51448;51.660;5.824;2023-02-10T12:58:54;103528.50;;;8.56;82.67
61119;BME280;51448;51.660;5.824;2023-02-10T13:01:34;103530.41;;;8.63;82.20
61119;BME280;51448;51.660;5.824;2023-02-10T13:04:22;103528.84;;;8.70;81.61
61119;BME280;51448;51.660;5.824;2023-02-10T13:07:19;103528.06;;;8.75;81.67
61119;BME280;51448;51.660;5.824;2023-02-10T13:13:31;103510.00;;;8.89;81.77
61119;BME280;51448;51.660;5.824;2023-02-10T13:16:04;103504.72;;;8.86;82.07
61119;BME280;51448;51.660;5.824;2023-02-10T13:18:46;103499.47;;;8.86;81.67
61119;BME280;51448;51.660;5.824;2023-02-10T13:21:29;103494.97;;;8.80;83.39
61119;BME280;51448;51.660;5.824;2023-02-10T13:24:13;103497.50;;;8.77;83.18
61119;BME280;51448;51.660;5.824;2023-02-10T13:33:04;103482.00;;;8.88;83.70
61119;BME280;51448;51.660;5.824;2023-02-10T13:35:57;103480.34;;;8.93;83.55
61119;BME280;51448;51.660;5.824;2023-02-10T13:38:28;103478.72;;;9.00;83.55
61119;BME280;51448;51.660;5.824;2023-02-10T13:41:00;103478.84;;;9.04;84.14
61119;BME280;51448;51.660;5.824;2023-02-10T13:43:54;103469.34;;;9.11;83.82
61119;BME280;51448;51.660;5.824;2023-02-10T13:46:28;103475.53;;;9.13;83.62
61119;BME280;51448;51.660;5.824;2023-02-10T13:48:59;103476.34;;;9.12;83.62
61119;BME280;51448;51.660;5.824;2023-02-10T13:51:35;103476.28;;;9.07;82.20
61119;BME280;51448;51.660;5.824;2023-02-10T13:54:05;103471.84;;;9.05;82.57
61119;BME280;51448;51.660;5.824;2023-02-10T13:56:33;103470.09;;;9.05;82.47
61119;BME280;51448;51.660;5.824;2023-02-10T14:06:50;103454.28;;;9.01;82.91
61119;BME280;51448;51.660;5.824;2023-02-10T14:09:32;103449.78;;;8.95;82.59
61119;BME280;51448;51.660;5.824;2023-02-10T14:12:19;103444.44;;;8.91;81.71
61119;BME280;51448;51.660;5.824;2023-02-10T14:14:52;103440.03;;;8.88;82.43
61119;BME280;51448;51.660;5.824;2023-02-10T14:17:26;103447.94;;;8.91;82.43
61119;BME280;51448;51.660;5.824;2023-02-10T14:19:59;103450.66;;;8.96;82.67
61119;BME280;51448;51.660;5.824;2023-02-10T14:25:04;103435.94;;;9.02;82.42
61119;BME280;51448;51.660;5.824;2023-02-10T14:27:53;103437.59;;;8.99;81.91
61119;BME280;51448;51.660;5.824;2023-02-10T14:33:29;103439.34;;;9.00;82.51
61119;BME280;51448;51.660;5.824;2023-02-10T14:36:01;103425.41;;;9.01;81.70
61119;BME280;51448;51.660;5.824;2023-02-10T14:38:33;103427.97;;;8.99;81.60
61119;BME280;51448;51.660;5.824;2023-02-10T14:41:04;103426.22;;;9.00;81.62
61119;BME280;51448;51.660;5.824;2023-02-10T14:43:48;103434.22;;;9.06;81.37
61119;BME280;51448;51.660;5.824;2023-02-10T14:46:23;103433.44;;;9.09;81.58
61119;BME280;51448;51.660;5.824;2023-02-10T14:48:59;103435.16;;;9.08;81.26
61119;BME280;51448;51.660;5.824;2023-02-10T14:51:31;103433.34;;;9.05;81.96
61119;BME280;51448;51.660;5.824;2023-02-10T14:54:20;103439.44;;;9.03;81.75
61119;BME280;51448;51.660;5.824;2023-02-10T14:57:00;103433.22;;;8.99;81.81
61119;BME280;51448;51.660;5.824;2023-02-10T14:59:30;103436.69;;;8.97;82.08
61119;BME280;51448;51.660;5.824;2023-02-10T15:02:04;103437.53;;;8.96;81.36